Ann Arbor, MI

8:36 AM EDT on April 27, 2015 (GMT -0400)
Walker Briar Works | | Change Station
CLOSE
Current Station
Personal Weather Station
Location: Ann Arbor, MI
Elevation: 961 ft
Nearby Weather Stations

Elev 961 ft 42.26 °N, 83.77 °W | Updated 6 minutes ago

Overcast
Overcast
41.9 °F
Feels Like 42 °F
N
1.6
Wind Variable Wind from North
Gusts 5.4 mph

Today
High -- | Low -- °F
--% Chance of Precip.
Yesterday
High -- | Low -- °F
Precip. -- in
6:36 AM 8:29 PM
Waxing Gibbous, 64% visible
Pressure 29.95 in
Visibility 10.0 miles
Clouds Mostly Cloudy 1800 ft
Overcast 6000 ft
Windchill 42 °F
Dew Point 36 °F
Humidity 81%
Rainfall 0.00 in
Snow Depth Not available.
UV 0 out of 12
Pollen 6.70 out of 12
Air Quality Not available.
Flu Activity Regional
SPECI KARB 271213Z 35008KT 10SM BKN018 OVC060 06/01 A2995 RMK AO2 T00610011

More Conditions Fewer Conditions

Pressure 29.95 in
Visibility 10.0 miles
Clouds Mostly Cloudy 1800 ft
Overcast 6000 ft
Windchill 42 °F
Dew Point 36 °F
Humidity 81%
Rainfall 0.00 in
Snow Depth Not available.
UV 0 out of 12
Pollen 6.70 out of 12
Air Quality Not available.
Flu Activity Regional
SPECI KARB 271213Z 35008KT 10SM BKN018 OVC060 06/01 A2995 RMK AO2 T00610011

More Conditions Fewer Conditions

10-Day Weather Forecast

Almanac

Astronomy

Apr. 27, 2015 Rise Set
Actual Time
Civil Twilight
Nautical Twilight
Astronomical Twilight
Moon
Length of Visible Light
Length of Day
Tomorrow will be .
, % of the Moon is Illuminated

Today's Extremes

State Highs State Lows

Community

WunderPhotos

Upload Photos

1,817,292 photos uploaded!

WunderBlogs® & News

Nearby

Air Quality

  Air Quality AQ Index Pollutant
Not available.

Snow Depth

Station Depth Elevation

Earthquake Activity

City Distance Mag. Time & Date
Minimum magnitude displayed is 2.5.

Coastal Water Temperatures

Place Temperature

Stations

Nearby Weather Stations

Station Location Temp. Windchill Dew Point Humidity Wind Precip. Elev Updated Type